createdAt,value
2019-05-23T00:03:48.291Z,34.43
2019-05-23T00:13:51.990Z,40.37
2019-05-23T00:23:54.736Z,34.55
2019-05-23T00:33:56.865Z,34.53
2019-05-23T00:43:58.951Z,39.92
2019-05-23T00:54:00.981Z,34.93
2019-05-23T01:04:03.077Z,34.63
2019-05-23T01:14:05.037Z,46.43
2019-05-23T01:24:08.879Z,38.70
2019-05-23T01:34:11.269Z,37.67
2019-05-23T01:44:13.200Z,38.95
2019-05-23T01:54:15.283Z,38.77
2019-05-23T02:04:17.407Z,39.60
2019-05-23T02:14:19.379Z,41.17
2019-05-23T02:24:21.360Z,43.30
2019-05-23T02:34:23.359Z,37.43
2019-05-23T02:44:25.317Z,37.23
2019-05-23T02:54:29.252Z,40.50
2019-05-23T03:04:31.277Z,33.92
2019-05-23T03:14:33.465Z,36.63
2019-05-23T03:24:35.416Z,31.53
2019-05-23T03:34:37.570Z,29.77
2019-05-23T03:44:39.624Z,32.48
2019-05-23T03:54:41.612Z,28.40
2019-05-23T04:04:43.537Z,28.13
2019-05-23T04:14:45.516Z,24.17
2019-05-23T04:24:47.539Z,27.20
2019-05-23T04:34:49.761Z,24.33
2019-05-23T04:44:51.809Z,22.30
2019-05-23T04:54:53.813Z,30.30
2019-05-23T05:04:56.364Z,35.77
2019-05-23T05:25:00.198Z,39.63
2019-05-23T05:35:02.852Z,35.48
2019-05-23T05:45:06.280Z,36.08
2019-05-23T05:55:09.348Z,44.03
2019-05-23T06:05:11.504Z,50.08
2019-05-23T06:15:13.657Z,46.30
2019-05-23T06:25:15.655Z,41.93
2019-05-23T06:35:17.951Z,44.07
2019-05-23T06:45:20.163Z,36.83
2019-05-23T06:55:22.226Z,42.38
2019-05-23T07:05:29.044Z,39.35
2019-05-23T07:15:31.256Z,45.52
2019-05-23T07:25:33.379Z,41.70
2019-05-23T07:35:35.443Z,38.70
2019-05-23T07:45:39.750Z,42.00
2019-05-23T07:55:41.435Z,40.50
2019-05-23T08:05:44.480Z,39.80
2019-05-23T08:15:46.541Z,28.55
2019-05-23T08:25:48.754Z,30.82
2019-05-23T08:35:50.711Z,32.17
2019-05-23T08:45:53.289Z,27.93
2019-05-23T08:55:55.383Z,25.75
2019-05-23T09:05:57.709Z,28.15
2019-05-23T09:16:00.266Z,19.57
2019-05-23T09:26:02.224Z,26.75
2019-05-23T09:36:04.196Z,18.02
2019-05-23T09:56:07.674Z,21.20
2019-05-23T10:16:11.119Z,14.38
2019-05-23T10:26:13.211Z,12.85
2019-05-23T10:36:15.299Z,12.25
2019-05-23T10:46:17.416Z,13.15
2019-05-23T10:56:20.695Z,16.52
2019-05-23T11:06:23.096Z,13.38
2019-05-23T11:16:25.087Z,15.78
2019-05-23T11:26:27.181Z,13.70
2019-05-23T11:36:35.836Z,12.75
2019-05-23T11:46:33.382Z,11.53
2019-05-23T11:56:35.384Z,7.50
2019-05-23T12:06:53.448Z,11.85
2019-05-23T12:16:41.179Z,4.92
2019-05-23T12:26:43.256Z,7.10
2019-05-23T12:36:45.285Z,8.98
2019-05-23T12:46:47.261Z,3.52
2019-05-23T12:56:49.597Z,5.40
2019-05-23T13:06:51.683Z,9.45
2019-05-23T13:16:53.660Z,3.75
2019-05-23T13:26:56.125Z,1.90
2019-05-23T13:36:58.155Z,2.02
2019-05-23T13:47:00.380Z,3.47
2019-05-23T13:57:02.855Z,4.45
2019-05-23T14:07:04.980Z,3.05
2019-05-23T14:17:07.339Z,8.40
2019-05-23T14:27:09.481Z,5.97
2019-05-23T14:37:11.723Z,17.48
2019-05-23T14:47:14.180Z,2.45
2019-05-23T14:57:16.204Z,3.75
2019-05-23T15:07:18.259Z,6.30
2019-05-23T15:17:20.471Z,4.50
2019-05-23T15:27:22.714Z,3.87
2019-05-23T15:37:24.780Z,8.28
2019-05-23T15:47:26.840Z,4.97
2019-05-23T15:57:28.794Z,5.87
2019-05-23T16:07:31.072Z,10.70
2019-05-23T16:17:33.217Z,4.42
2019-05-23T16:27:35.477Z,6.72
2019-05-23T16:37:49.618Z,4.35
2019-05-23T16:47:51.727Z,9.35
2019-05-23T16:57:53.956Z,62.78
2019-05-23T17:07:55.955Z,11.65
2019-05-23T17:18:02.675Z,3.12
2019-05-23T17:28:02.324Z,8.95
2019-05-23T17:38:04.408Z,18.87
2019-05-23T17:48:06.573Z,6.85
2019-05-23T17:58:08.549Z,24.27
2019-05-23T18:08:10.782Z,9.95
2019-05-23T18:18:12.850Z,37.05
2019-05-23T18:28:15.003Z,11.18
2019-05-23T18:38:17.504Z,12.53
2019-05-23T18:48:19.919Z,48.48
2019-05-23T18:58:22.249Z,16.05
2019-05-23T19:08:24.315Z,26.07
2019-05-23T19:18:26.573Z,12.43
2019-05-23T19:28:28.839Z,10.40
2019-05-23T19:38:31.019Z,5.28
2019-05-23T19:48:33.378Z,8.50
2019-05-23T19:58:35.721Z,7.28
2019-05-23T20:08:37.685Z,8.60
2019-05-23T20:18:39.755Z,3.47
2019-05-23T20:38:43.621Z,3.72
2019-05-23T20:48:45.562Z,4.83
2019-05-23T20:58:50.192Z,4.78
2019-05-23T21:08:52.152Z,4.25
2019-05-23T21:18:55.304Z,3.42
2019-05-23T21:28:57.324Z,4.95
2019-05-23T21:38:59.357Z,4.03
2019-05-23T21:49:02.090Z,3.90
2019-05-23T21:59:06.427Z,5.00
2019-05-23T22:09:08.823Z,6.33
2019-05-23T22:19:10.741Z,5.00
2019-05-23T22:29:12.934Z,5.33
2019-05-23T22:39:15.043Z,4.72
2019-05-23T22:49:17.012Z,6.30
2019-05-23T22:59:18.952Z,9.45
2019-05-23T23:09:20.956Z,6.37
2019-05-23T23:19:22.937Z,6.53
2019-05-23T23:29:24.919Z,8.88
2019-05-23T23:39:27.213Z,6.92
2019-05-23T23:59:31.095Z,6.90
